sensor_id;sensor_type;location;lat;lon;timestamp;P1;durP1;ratioP1;P2;durP2;ratioP2
76712;SDS011;65640;43.154;25.658;2023-04-15T00:01:23;4.60;;;0.77;;
76712;SDS011;65640;43.154;25.658;2023-04-15T00:03:53;2.88;;;1.10;;
76712;SDS011;65640;43.154;25.658;2023-04-15T00:06:22;1.55;;;1.20;;
76712;SDS011;65640;43.154;25.658;2023-04-15T00:08:48;3.53;;;1.20;;
76712;SDS011;65640;43.154;25.658;2023-04-15T00:11:14;2.65;;;1.00;;
76712;SDS011;65640;43.154;25.658;2023-04-15T00:13:41;4.25;;;1.00;;
76712;SDS011;65640;43.154;25.658;2023-04-15T00:16:07;2.63;;;1.00;;
76712;SDS011;65640;43.154;25.658;2023-04-15T00:18:33;2.70;;;1.00;;
76712;SDS011;65640;43.154;25.658;2023-04-15T00:20:59;1.17;;;0.60;;
76712;SDS011;65640;43.154;25.658;2023-04-15T00:23:25;1.38;;;0.85;;
76712;SDS011;65640;43.154;25.658;2023-04-15T00:25:51;2.88;;;0.80;;
76712;SDS011;65640;43.154;25.658;2023-04-15T00:28:17;1.50;;;0.90;;
76712;SDS011;65640;43.154;25.658;2023-04-15T00:30:43;1.88;;;0.82;;
76712;SDS011;65640;43.154;25.658;2023-04-15T00:33:08;1.60;;;0.85;;
76712;SDS011;65640;43.154;25.658;2023-04-15T00:35:34;1.80;;;0.88;;
76712;SDS011;65640;43.154;25.658;2023-04-15T00:40:26;2.13;;;0.77;;
76712;SDS011;65640;43.154;25.658;2023-04-15T00:42:52;1.33;;;0.68;;
76712;SDS011;65640;43.154;25.658;2023-04-15T00:45:18;2.95;;;0.73;;
76712;SDS011;65640;43.154;25.658;2023-04-15T00:47:44;4.43;;;0.68;;
76712;SDS011;65640;43.154;25.658;2023-04-15T00:50:10;2.53;;;0.90;;
76712;SDS011;65640;43.154;25.658;2023-04-15T00:52:36;3.00;;;0.65;;
76712;SDS011;65640;43.154;25.658;2023-04-15T00:55:03;2.30;;;1.42;;
76712;SDS011;65640;43.154;25.658;2023-04-15T00:57:29;4.00;;;1.17;;
76712;SDS011;65640;43.154;25.658;2023-04-15T00:59:55;1.65;;;0.80;;
76712;SDS011;65640;43.154;25.658;2023-04-15T01:02:21;2.00;;;1.15;;
76712;SDS011;65640;43.154;25.658;2023-04-15T01:04:47;2.28;;;0.55;;
76712;SDS011;65640;43.154;25.658;2023-04-15T01:07:13;1.00;;;0.60;;
76712;SDS011;65640;43.154;25.658;2023-04-15T01:09:38;3.53;;;0.80;;
76712;SDS011;65640;43.154;25.658;2023-04-15T01:12:04;2.25;;;0.70;;
76712;SDS011;65640;43.154;25.658;2023-04-15T01:14:31;2.30;;;0.82;;
76712;SDS011;65640;43.154;25.658;2023-04-15T01:16:57;2.58;;;0.80;;
76712;SDS011;65640;43.154;25.658;2023-04-15T01:19:23;0.95;;;0.43;;
76712;SDS011;65640;43.154;25.658;2023-04-15T01:21:48;2.63;;;0.70;;
76712;SDS011;65640;43.154;25.658;2023-04-15T01:24:14;3.47;;;0.95;;
76712;SDS011;65640;43.154;25.658;2023-04-15T01:26:42;2.80;;;1.08;;
76712;SDS011;65640;43.154;25.658;2023-04-15T01:29:08;1.48;;;0.60;;
76712;SDS011;65640;43.154;25.658;2023-04-15T01:31:34;0.85;;;0.65;;
76712;SDS011;65640;43.154;25.658;2023-04-15T01:34:00;3.92;;;0.95;;
76712;SDS011;65640;43.154;25.658;2023-04-15T01:36:26;2.53;;;0.60;;
76712;SDS011;65640;43.154;25.658;2023-04-15T01:38:52;3.40;;;1.00;;
76712;SDS011;65640;43.154;25.658;2023-04-15T01:41:24;1.92;;;0.70;;
76712;SDS011;65640;43.154;25.658;2023-04-15T01:43:51;1.77;;;1.10;;
76712;SDS011;65640;43.154;25.658;2023-04-15T01:46:17;2.60;;;1.00;;
76712;SDS011;65640;43.154;25.658;2023-04-15T01:48:42;1.45;;;1.00;;
76712;SDS011;65640;43.154;25.658;2023-04-15T01:51:08;3.45;;;1.00;;
76712;SDS011;65640;43.154;25.658;2023-04-15T01:53:33;2.42;;;0.70;;
76712;SDS011;65640;43.154;25.658;2023-04-15T01:55:58;2.95;;;1.00;;
76712;SDS011;65640;43.154;25.658;2023-04-15T01:58:24;2.03;;;0.80;;
76712;SDS011;65640;43.154;25.658;2023-04-15T02:00:50;2.78;;;0.88;;
76712;SDS011;65640;43.154;25.658;2023-04-15T02:03:15;1.88;;;0.88;;
76712;SDS011;65640;43.154;25.658;2023-04-15T02:05:41;1.08;;;0.73;;
76712;SDS011;65640;43.154;25.658;2023-04-15T02:08:06;0.73;;;0.63;;
76712;SDS011;65640;43.154;25.658;2023-04-15T02:10:32;3.83;;;0.80;;
76712;SDS011;65640;43.154;25.658;2023-04-15T02:12:57;1.20;;;0.82;;
76712;SDS011;65640;43.154;25.658;2023-04-15T02:15:23;1.17;;;1.00;;
76712;SDS011;65640;43.154;25.658;2023-04-15T02:17:48;4.60;;;1.30;;
76712;SDS011;65640;43.154;25.658;2023-04-15T02:20:16;2.67;;;1.38;;
76712;SDS011;65640;43.154;25.658;2023-04-15T02:22:43;3.15;;;1.85;;
76712;SDS011;65640;43.154;25.658;2023-04-15T02:25:08;3.42;;;1.30;;
76712;SDS011;65640;43.154;25.658;2023-04-15T02:27:35;1.15;;;0.88;;
76712;SDS011;65640;43.154;25.658;2023-04-15T02:30:00;2.92;;;1.15;;
76712;SDS011;65640;43.154;25.658;2023-04-15T02:32:26;4.18;;;1.15;;
76712;SDS011;65640;43.154;25.658;2023-04-15T02:34:52;1.80;;;1.70;;
76712;SDS011;65640;43.154;25.658;2023-04-15T02:37:18;3.38;;;1.00;;
76712;SDS011;65640;43.154;25.658;2023-04-15T02:39:44;3.58;;;1.13;;
76712;SDS011;65640;43.154;25.658;2023-04-15T02:42:10;2.13;;;1.50;;
76712;SDS011;65640;43.154;25.658;2023-04-15T02:44:36;2.70;;;1.20;;
76712;SDS011;65640;43.154;25.658;2023-04-15T02:47:01;2.28;;;1.10;;
76712;SDS011;65640;43.154;25.658;2023-04-15T02:49:28;3.10;;;1.15;;
76712;SDS011;65640;43.154;25.658;2023-04-15T02:51:55;2.00;;;1.70;;
76712;SDS011;65640;43.154;25.658;2023-04-15T02:54:22;4.40;;;1.70;;
76712;SDS011;65640;43.154;25.658;2023-04-15T02:56:48;2.05;;;1.35;;
76712;SDS011;65640;43.154;25.658;2023-04-15T02:59:14;1.42;;;1.25;;
76712;SDS011;65640;43.154;25.658;2023-04-15T03:01:39;4.60;;;1.83;;
76712;SDS011;65640;43.154;25.658;2023-04-15T03:04:05;2.10;;;1.98;;
76712;SDS011;65640;43.154;25.658;2023-04-15T03:06:33;7.13;;;1.67;;
76712;SDS011;65640;43.154;25.658;2023-04-15T03:08:58;3.13;;;1.85;;
76712;SDS011;65640;43.154;25.658;2023-04-15T03:11:24;1.88;;;1.40;;
76712;SDS011;65640;43.154;25.658;2023-04-15T03:13:51;1.90;;;1.35;;
76712;SDS011;65640;43.154;25.658;2023-04-15T03:16:17;7.05;;;2.55;;
76712;SDS011;65640;43.154;25.658;2023-04-15T03:18:42;7.00;;;2.22;;
76712;SDS011;65640;43.154;25.658;2023-04-15T03:21:07;9.98;;;5.78;;
76712;SDS011;65640;43.154;25.658;2023-04-15T03:23:33;9.52;;;6.25;;
76712;SDS011;65640;43.154;25.658;2023-04-15T03:26:01;10.63;;;5.82;;
76712;SDS011;65640;43.154;25.658;2023-04-15T03:28:27;7.07;;;3.67;;
76712;SDS011;65640;43.154;25.658;2023-04-15T03:30:54;7.00;;;3.10;;
76712;SDS011;65640;43.154;25.658;2023-04-15T03:33:19;6.72;;;3.13;;
76712;SDS011;65640;43.154;25.658;2023-04-15T03:35:45;5.10;;;3.65;;
76712;SDS011;65640;43.154;25.658;2023-04-15T03:38:10;3.97;;;3.63;;
76712;SDS011;65640;43.154;25.658;2023-04-15T03:40:37;4.68;;;3.25;;
76712;SDS011;65640;43.154;25.658;2023-04-15T03:43:05;4.18;;;3.83;;
76712;SDS011;65640;43.154;25.658;2023-04-15T03:45:30;4.57;;;3.85;;
76712;SDS011;65640;43.154;25.658;2023-04-15T03:47:56;3.75;;;2.97;;
76712;SDS011;65640;43.154;25.658;2023-04-15T03:50:21;5.85;;;2.63;;
76712;SDS011;65640;43.154;25.658;2023-04-15T03:52:47;6.20;;;1.90;;
76712;SDS011;65640;43.154;25.658;2023-04-15T03:55:12;2.03;;;1.63;;
76712;SDS011;65640;43.154;25.658;2023-04-15T03:57:38;3.75;;;2.10;;
76712;SDS011;65640;43.154;25.658;2023-04-15T04:00:04;3.50;;;2.95;;
76712;SDS011;65640;43.154;25.658;2023-04-15T04:04:56;3.70;;;1.80;;
76712;SDS011;65640;43.154;25.658;2023-04-15T04:07:22;2.15;;;1.73;;
76712;SDS011;65640;43.154;25.658;2023-04-15T04:09:48;4.00;;;2.20;;
76712;SDS011;65640;43.154;25.658;2023-04-15T04:12:13;3.15;;;2.35;;
76712;SDS011;65640;43.154;25.658;2023-04-15T04:14:38;3.58;;;2.75;;
76712;SDS011;65640;43.154;25.658;2023-04-15T04:17:04;4.95;;;2.13;;
76712;SDS011;65640;43.154;25.658;2023-04-15T04:19:29;3.92;;;2.42;;
76712;SDS011;65640;43.154;25.658;2023-04-15T04:21:55;5.03;;;1.92;;
76712;SDS011;65640;43.154;25.658;2023-04-15T04:24:20;2.75;;;1.67;;
76712;SDS011;65640;43.154;25.658;2023-04-15T04:26:46;2.22;;;1.85;;
76712;SDS011;65640;43.154;25.658;2023-04-15T04:29:11;5.60;;;2.33;;
76712;SDS011;65640;43.154;25.658;2023-04-15T04:31:37;7.15;;;1.80;;
76712;SDS011;65640;43.154;25.658;2023-04-15T04:34:02;2.67;;;1.75;;
76712;SDS011;65640;43.154;25.658;2023-04-15T04:36:28;6.55;;;1.77;;
76712;SDS011;65640;43.154;25.658;2023-04-15T04:38:53;2.60;;;1.80;;
76712;SDS011;65640;43.154;25.658;2023-04-15T04:41:18;3.13;;;2.20;;
76712;SDS011;65640;43.154;25.658;2023-04-15T04:43:44;3.22;;;2.55;;
76712;SDS011;65640;43.154;25.658;2023-04-15T04:46:09;4.03;;;2.90;;
76712;SDS011;65640;43.154;25.658;2023-04-15T04:48:35;6.50;;;3.30;;
76712;SDS011;65640;43.154;25.658;2023-04-15T04:51:01;4.68;;;4.28;;
76712;SDS011;65640;43.154;25.658;2023-04-15T04:53:27;6.65;;;4.25;;
76712;SDS011;65640;43.154;25.658;2023-04-15T04:55:52;2.53;;;2.33;;
76712;SDS011;65640;43.154;25.658;2023-04-15T04:58:18;4.68;;;1.92;;
76712;SDS011;65640;43.154;25.658;2023-04-15T05:00:43;7.38;;;3.85;;
76712;SDS011;65640;43.154;25.658;2023-04-15T05:03:08;26.40;;;12.55;;
76712;SDS011;65640;43.154;25.658;2023-04-15T05:05:34;8.48;;;5.25;;
76712;SDS011;65640;43.154;25.658;2023-04-15T05:08:01;6.28;;;3.45;;
76712;SDS011;65640;43.154;25.658;2023-04-15T05:10:26;6.75;;;2.22;;
76712;SDS011;65640;43.154;25.658;2023-04-15T05:12:52;3.67;;;2.97;;
76712;SDS011;65640;43.154;25.658;2023-04-15T05:15:17;2.55;;;2.35;;
76712;SDS011;65640;43.154;25.658;2023-04-15T05:17:43;4.35;;;2.50;;
76712;SDS011;65640;43.154;25.658;2023-04-15T05:20:08;3.28;;;2.25;;
76712;SDS011;65640;43.154;25.658;2023-04-15T05:22:34;7.47;;;4.35;;
76712;SDS011;65640;43.154;25.658;2023-04-15T05:25:00;4.70;;;2.13;;
76712;SDS011;65640;43.154;25.658;2023-04-15T05:27:25;6.18;;;2.35;;
76712;SDS011;65640;43.154;25.658;2023-04-15T05:29:50;6.15;;;3.60;;
76712;SDS011;65640;43.154;25.658;2023-04-15T05:32:16;7.47;;;5.40;;
76712;SDS011;65640;43.154;25.658;2023-04-15T05:34:41;9.35;;;7.10;;
76712;SDS011;65640;43.154;25.658;2023-04-15T05:37:07;5.43;;;4.30;;
76712;SDS011;65640;43.154;25.658;2023-04-15T05:39:32;6.20;;;3.78;;
76712;SDS011;65640;43.154;25.658;2023-04-15T05:41:58;5.55;;;3.03;;
76712;SDS011;65640;43.154;25.658;2023-04-15T05:44:24;10.55;;;8.50;;
76712;SDS011;65640;43.154;25.658;2023-04-15T05:46:49;8.30;;;5.70;;
76712;SDS011;65640;43.154;25.658;2023-04-15T05:49:15;4.85;;;2.53;;
76712;SDS011;65640;43.154;25.658;2023-04-15T05:51:40;7.82;;;2.40;;
76712;SDS011;65640;43.154;25.658;2023-04-15T05:54:06;1.92;;;1.42;;
76712;SDS011;65640;43.154;25.658;2023-04-15T05:56:31;4.15;;;1.20;;
76712;SDS011;65640;43.154;25.658;2023-04-15T05:58:56;2.67;;;1.55;;
76712;SDS011;65640;43.154;25.658;2023-04-15T06:01:22;4.18;;;2.03;;
76712;SDS011;65640;43.154;25.658;2023-04-15T06:03:48;1.42;;;1.10;;
76712;SDS011;65640;43.154;25.658;2023-04-15T06:06:14;2.95;;;0.95;;
76712;SDS011;65640;43.154;25.658;2023-04-15T06:08:39;1.70;;;0.93;;
76712;SDS011;65640;43.154;25.658;2023-04-15T06:11:05;3.25;;;1.15;;
76712;SDS011;65640;43.154;25.658;2023-04-15T06:13:31;1.85;;;1.08;;
76712;SDS011;65640;43.154;25.658;2023-04-15T06:15:56;1.85;;;1.48;;
76712;SDS011;65640;43.154;25.658;2023-04-15T06:18:22;5.68;;;1.63;;
76712;SDS011;65640;43.154;25.658;2023-04-15T06:20:47;3.83;;;1.30;;
76712;SDS011;65640;43.154;25.658;2023-04-15T06:23:13;1.75;;;1.23;;
76712;SDS011;65640;43.154;25.658;2023-04-15T06:25:38;1.98;;;1.20;;
76712;SDS011;65640;43.154;25.658;2023-04-15T06:28:03;3.53;;;1.20;;
76712;SDS011;65640;43.154;25.658;2023-04-15T06:30:29;1.38;;;0.90;;
76712;SDS011;65640;43.154;25.658;2023-04-15T06:32:54;1.35;;;0.80;;
76712;SDS011;65640;43.154;25.658;2023-04-15T06:35:20;3.13;;;0.93;;
76712;SDS011;65640;43.154;25.658;2023-04-15T06:37:46;1.02;;;0.90;;
76712;SDS011;65640;43.154;25.658;2023-04-15T06:40:11;1.52;;;0.90;;
76712;SDS011;65640;43.154;25.658;2023-04-15T06:42:37;1.77;;;0.88;;
76712;SDS011;65640;43.154;25.658;2023-04-15T06:45:02;2.38;;;0.90;;
76712;SDS011;65640;43.154;25.658;2023-04-15T06:47:28;2.25;;;1.00;;
76712;SDS011;65640;43.154;25.658;2023-04-15T06:49:54;1.48;;;0.60;;
76712;SDS011;65640;43.154;25.658;2023-04-15T06:52:19;1.45;;;0.50;;
76712;SDS011;65640;43.154;25.658;2023-04-15T06:54:45;1.35;;;0.80;;
76712;SDS011;65640;43.154;25.658;2023-04-15T06:57:10;0.55;;;0.43;;
76712;SDS011;65640;43.154;25.658;2023-04-15T06:59:36;1.60;;;0.60;;
76712;SDS011;65640;43.154;25.658;2023-04-15T07:02:01;1.02;;;0.60;;
76712;SDS011;65640;43.154;25.658;2023-04-15T07:04:27;0.85;;;0.80;;
76712;SDS011;65640;43.154;25.658;2023-04-15T07:06:52;0.70;;;0.52;;
76712;SDS011;65640;43.154;25.658;2023-04-15T07:09:20;1.55;;;0.70;;
76712;SDS011;65640;43.154;25.658;2023-04-15T07:11:46;1.33;;;0.90;;
76712;SDS011;65640;43.154;25.658;2023-04-15T07:14:11;1.35;;;0.60;;
76712;SDS011;65640;43.154;25.658;2023-04-15T07:16:37;1.45;;;0.60;;
76712;SDS011;65640;43.154;25.658;2023-04-15T07:19:02;3.20;;;1.00;;
76712;SDS011;65640;43.154;25.658;2023-04-15T07:21:27;2.13;;;0.90;;
76712;SDS011;65640;43.154;25.658;2023-04-15T07:23:53;1.90;;;0.82;;
76712;SDS011;65640;43.154;25.658;2023-04-15T07:26:19;1.75;;;0.60;;
76712;SDS011;65640;43.154;25.658;2023-04-15T07:28:44;1.92;;;0.70;;
76712;SDS011;65640;43.154;25.658;2023-04-15T07:31:11;1.70;;;0.70;;
76712;SDS011;65640;43.154;25.658;2023-04-15T07:33:36;0.60;;;0.50;;
76712;SDS011;65640;43.154;25.658;2023-04-15T07:36:01;2.05;;;0.73;;
76712;SDS011;65640;43.154;25.658;2023-04-15T07:38:27;1.85;;;0.73;;
76712;SDS011;65640;43.154;25.658;2023-04-15T07:40:53;1.35;;;0.63;;
76712;SDS011;65640;43.154;25.658;2023-04-15T07:43:18;2.30;;;0.60;;
76712;SDS011;65640;43.154;25.658;2023-04-15T07:45:45;1.75;;;0.60;;
76712;SDS011;65640;43.154;25.658;2023-04-15T07:48:10;0.65;;;0.65;;
76712;SDS011;65640;43.154;25.658;2023-04-15T07:50:36;0.70;;;0.70;;
76712;SDS011;65640;43.154;25.658;2023-04-15T07:53:02;1.98;;;0.88;;
76712;SDS011;65640;43.154;25.658;2023-04-15T07:55:27;0.43;;;0.43;;
76712;SDS011;65640;43.154;25.658;2023-04-15T07:57:54;1.10;;;0.50;;
76712;SDS011;65640;43.154;25.658;2023-04-15T08:00:19;1.80;;;0.60;;
76712;SDS011;65640;43.154;25.658;2023-04-15T08:02:45;3.90;;;3.10;;
76712;SDS011;65640;43.154;25.658;2023-04-15T08:05:12;1.05;;;0.40;;
76712;SDS011;65640;43.154;25.658;2023-04-15T08:07:38;0.80;;;0.45;;
76712;SDS011;65640;43.154;25.658;2023-04-15T08:10:04;2.35;;;0.70;;
76712;SDS011;65640;43.154;25.658;2023-04-15T08:12:31;1.50;;;0.38;;
76712;SDS011;65640;43.154;25.658;2023-04-15T08:14:56;0.60;;;0.30;;
76712;SDS011;65640;43.154;25.658;2023-04-15T08:17:22;2.80;;;1.42;;
76712;SDS011;65640;43.154;25.658;2023-04-15T08:19:48;3.60;;;0.55;;
76712;SDS011;65640;43.154;25.658;2023-04-15T08:22:13;1.63;;;0.70;;
76712;SDS011;65640;43.154;25.658;2023-04-15T08:24:39;3.05;;;0.70;;
76712;SDS011;65640;43.154;25.658;2023-04-15T08:27:04;2.75;;;1.05;;
76712;SDS011;65640;43.154;25.658;2023-04-15T08:29:33;4.10;;;0.70;;
76712;SDS011;65640;43.154;25.658;2023-04-15T08:31:59;3.00;;;0.70;;
76712;SDS011;65640;43.154;25.658;2023-04-15T08:34:28;2.75;;;0.57;;
76712;SDS011;65640;43.154;25.658;2023-04-15T08:36:53;2.20;;;0.70;;
76712;SDS011;65640;43.154;25.658;2023-04-15T08:39:19;4.25;;;0.55;;
76712;SDS011;65640;43.154;25.658;2023-04-15T08:42:07;0.63;;;0.60;;
76712;SDS011;65640;43.154;25.658;2023-04-15T08:44:35;1.38;;;0.52;;
76712;SDS011;65640;43.154;25.658;2023-04-15T08:49:28;2.55;;;0.40;;
76712;SDS011;65640;43.154;25.658;2023-04-15T08:51:54;2.15;;;0.88;;
76712;SDS011;65640;43.154;25.658;2023-04-15T08:54:22;2.60;;;0.50;;
76712;SDS011;65640;43.154;25.658;2023-04-15T08:56:48;1.38;;;0.60;;
76712;SDS011;65640;43.154;25.658;2023-04-15T08:59:14;2.38;;;0.50;;
76712;SDS011;65640;43.154;25.658;2023-04-15T09:01:40;1.45;;;0.70;;
76712;SDS011;65640;43.154;25.658;2023-04-15T09:04:06;1.20;;;0.47;;
76712;SDS011;65640;43.154;25.658;2023-04-15T09:06:32;0.90;;;0.43;;
76712;SDS011;65640;43.154;25.658;2023-04-15T09:08:58;0.98;;;0.47;;
76712;SDS011;65640;43.154;25.658;2023-04-15T09:11:23;2.63;;;0.50;;
76712;SDS011;65640;43.154;25.658;2023-04-15T09:13:49;1.10;;;0.45;;
76712;SDS011;65640;43.154;25.658;2023-04-15T09:16:15;1.30;;;0.50;;
76712;SDS011;65640;43.154;25.658;2023-04-15T09:18:41;0.63;;;0.43;;
76712;SDS011;65640;43.154;25.658;2023-04-15T09:21:11;0.65;;;0.40;;
76712;SDS011;65640;43.154;25.658;2023-04-15T09:23:38;2.55;;;0.65;;
76712;SDS011;65640;43.154;25.658;2023-04-15T09:26:05;3.25;;;0.60;;
76712;SDS011;65640;43.154;25.658;2023-04-15T09:28:31;1.85;;;0.45;;
76712;SDS011;65640;43.154;25.658;2023-04-15T09:33:22;1.95;;;0.82;;
76712;SDS011;65640;43.154;25.658;2023-04-15T09:35:55;0.75;;;0.70;;
76712;SDS011;65640;43.154;25.658;2023-04-15T09:38:23;1.45;;;0.68;;
76712;SDS011;65640;43.154;25.658;2023-04-15T09:40:48;0.90;;;0.60;;
76712;SDS011;65640;43.154;25.658;2023-04-15T09:43:14;0.93;;;0.40;;
76712;SDS011;65640;43.154;25.658;2023-04-15T09:45:50;2.10;;;0.50;;
76712;SDS011;65640;43.154;25.658;2023-04-15T09:50:46;2.35;;;0.70;;
76712;SDS011;65640;43.154;25.658;2023-04-15T09:53:17;1.45;;;0.80;;
76712;SDS011;65640;43.154;25.658;2023-04-15T09:56:01;0.98;;;0.50;;
76712;SDS011;65640;43.154;25.658;2023-04-15T09:58:28;2.50;;;2.30;;
76712;SDS011;65640;43.154;25.658;2023-04-15T10:00:58;1.38;;;0.60;;
76712;SDS011;65640;43.154;25.658;2023-04-15T10:03:25;2.42;;;0.60;;
76712;SDS011;65640;43.154;25.658;2023-04-15T10:05:53;2.05;;;0.50;;
76712;SDS011;65640;43.154;25.658;2023-04-15T10:08:25;1.23;;;0.57;;
76712;SDS011;65640;43.154;25.658;2023-04-15T10:10:55;2.75;;;0.50;;
76712;SDS011;65640;43.154;25.658;2023-04-15T10:13:25;1.83;;;0.63;;
76712;SDS011;65640;43.154;25.658;2023-04-15T10:15:57;0.75;;;0.50;;
76712;SDS011;65640;43.154;25.658;2023-04-15T10:18:25;2.05;;;0.38;;
76712;SDS011;65640;43.154;25.658;2023-04-15T10:20:52;0.88;;;0.65;;
76712;SDS011;65640;43.154;25.658;2023-04-15T10:23:19;1.52;;;0.40;;
76712;SDS011;65640;43.154;25.658;2023-04-15T10:25:45;1.00;;;0.50;;
76712;SDS011;65640;43.154;25.658;2023-04-15T10:28:11;2.10;;;0.70;;
76712;SDS011;65640;43.154;25.658;2023-04-15T10:30:38;2.38;;;0.45;;
76712;SDS011;65640;43.154;25.658;2023-04-15T10:33:04;3.88;;;0.35;;
76712;SDS011;65640;43.154;25.658;2023-04-15T10:35:30;1.40;;;0.35;;
76712;SDS011;65640;43.154;25.658;2023-04-15T10:37:58;0.65;;;0.38;;
76712;SDS011;65640;43.154;25.658;2023-04-15T10:40:24;0.88;;;0.65;;
76712;SDS011;65640;43.154;25.658;2023-04-15T10:42:52;0.93;;;0.50;;
76712;SDS011;65640;43.154;25.658;2023-04-15T10:45:18;2.97;;;0.70;;
76712;SDS011;65640;43.154;25.658;2023-04-15T10:47:44;3.60;;;0.80;;
76712;SDS011;65640;43.154;25.658;2023-04-15T10:50:10;3.72;;;0.80;;
76712;SDS011;65640;43.154;25.658;2023-04-15T10:52:36;1.33;;;0.70;;
76712;SDS011;65640;43.154;25.658;2023-04-15T10:57:36;1.35;;;0.50;;
76712;SDS011;65640;43.154;25.658;2023-04-15T11:02:42;2.80;;;0.60;;
76712;SDS011;65640;43.154;25.658;2023-04-15T11:05:08;3.10;;;0.73;;
76712;SDS011;65640;43.154;25.658;2023-04-15T11:07:37;0.93;;;0.40;;
76712;SDS011;65640;43.154;25.658;2023-04-15T11:12:56;1.33;;;0.55;;
76712;SDS011;65640;43.154;25.658;2023-04-15T11:18:11;1.30;;;0.60;;
76712;SDS011;65640;43.154;25.658;2023-04-15T11:20:51;1.30;;;0.75;;
76712;SDS011;65640;43.154;25.658;2023-04-15T11:23:19;1.00;;;0.40;;
76712;SDS011;65640;43.154;25.658;2023-04-15T11:25:53;0.98;;;0.55;;
76712;SDS011;65640;43.154;25.658;2023-04-15T11:28:20;2.90;;;0.88;;
76712;SDS011;65640;43.154;25.658;2023-04-15T11:31:02;1.08;;;0.50;;
76712;SDS011;65640;43.154;25.658;2023-04-15T11:35:55;1.02;;;0.50;;
76712;SDS011;65640;43.154;25.658;2023-04-15T11:38:21;0.52;;;0.35;;
76712;SDS011;65640;43.154;25.658;2023-04-15T11:40:46;2.65;;;0.60;;
76712;SDS011;65640;43.154;25.658;2023-04-15T11:45:59;2.78;;;0.60;;
76712;SDS011;65640;43.154;25.658;2023-04-15T11:48:31;1.25;;;0.70;;
76712;SDS011;65640;43.154;25.658;2023-04-15T11:50:59;0.70;;;0.70;;
76712;SDS011;65640;43.154;25.658;2023-04-15T11:56:05;0.70;;;0.68;;
76712;SDS011;65640;43.154;25.658;2023-04-15T11:58:33;1.23;;;0.50;;
76712;SDS011;65640;43.154;25.658;2023-04-15T12:01:02;1.85;;;0.98;;
76712;SDS011;65640;43.154;25.658;2023-04-15T12:03:29;1.00;;;0.50;;
76712;SDS011;65640;43.154;25.658;2023-04-15T12:13:56;1.63;;;0.68;;
76712;SDS011;65640;43.154;25.658;2023-04-15T12:16:34;2.25;;;0.68;;
76712;SDS011;65640;43.154;25.658;2023-04-15T12:19:06;0.50;;;0.47;;
76712;SDS011;65640;43.154;25.658;2023-04-15T12:21:35;0.98;;;0.60;;
76712;SDS011;65640;43.154;25.658;2023-04-15T12:24:03;1.00;;;0.50;;
76712;SDS011;65640;43.154;25.658;2023-04-15T12:26:35;4.05;;;0.50;;
76712;SDS011;65640;43.154;25.658;2023-04-15T12:29:06;2.10;;;1.70;;
76712;SDS011;65640;43.154;25.658;2023-04-15T12:31:35;6.88;;;3.17;;
76712;SDS011;65640;43.154;25.658;2023-04-15T12:34:01;3.17;;;1.33;;
76712;SDS011;65640;43.154;25.658;2023-04-15T12:36:28;0.93;;;0.70;;
76712;SDS011;65640;43.154;25.658;2023-04-15T12:39:00;2.85;;;0.65;;
76712;SDS011;65640;43.154;25.658;2023-04-15T12:41:25;0.50;;;0.40;;
76712;SDS011;65640;43.154;25.658;2023-04-15T12:43:51;2.95;;;0.70;;
76712;SDS011;65640;43.154;25.658;2023-04-15T12:46:16;1.38;;;0.50;;
76712;SDS011;65640;43.154;25.658;2023-04-15T12:48:41;2.08;;;1.45;;
76712;SDS011;65640;43.154;25.658;2023-04-15T12:51:07;1.33;;;0.55;;
76712;SDS011;65640;43.154;25.658;2023-04-15T12:53:32;2.85;;;0.60;;
76712;SDS011;65640;43.154;25.658;2023-04-15T12:55:58;1.42;;;0.93;;
76712;SDS011;65640;43.154;25.658;2023-04-15T12:58:23;1.52;;;0.88;;
76712;SDS011;65640;43.154;25.658;2023-04-15T13:00:50;1.05;;;0.90;;
76712;SDS011;65640;43.154;25.658;2023-04-15T13:03:15;2.50;;;1.70;;
76712;SDS011;65640;43.154;25.658;2023-04-15T13:05:41;2.88;;;1.23;;
76712;SDS011;65640;43.154;25.658;2023-04-15T13:08:06;0.75;;;0.75;;
76712;SDS011;65640;43.154;25.658;2023-04-15T13:10:32;2.47;;;1.33;;
76712;SDS011;65640;43.154;25.658;2023-04-15T13:13:00;1.15;;;0.73;;
76712;SDS011;65640;43.154;25.658;2023-04-15T13:15:26;3.70;;;0.80;;
76712;SDS011;65640;43.154;25.658;2023-04-15T13:17:51;0.57;;;0.50;;
76712;SDS011;65640;43.154;25.658;2023-04-15T13:20:17;1.90;;;0.60;;
76712;SDS011;65640;43.154;25.658;2023-04-15T13:22:43;1.58;;;0.60;;
76712;SDS011;65640;43.154;25.658;2023-04-15T13:25:08;1.35;;;0.80;;
76712;SDS011;65640;43.154;25.658;2023-04-15T13:27:34;1.52;;;0.70;;
76712;SDS011;65640;43.154;25.658;2023-04-15T13:29:59;2.42;;;0.82;;
76712;SDS011;65640;43.154;25.658;2023-04-15T13:32:25;2.72;;;0.65;;
76712;SDS011;65640;43.154;25.658;2023-04-15T13:34:51;3.30;;;1.02;;
76712;SDS011;65640;43.154;25.658;2023-04-15T13:37:16;1.38;;;0.90;;
76712;SDS011;65640;43.154;25.658;2023-04-15T13:39:42;4.38;;;1.00;;
76712;SDS011;65640;43.154;25.658;2023-04-15T13:42:07;2.28;;;1.38;;
76712;SDS011;65640;43.154;25.658;2023-04-15T13:44:33;2.42;;;1.00;;
76712;SDS011;65640;43.154;25.658;2023-04-15T13:46:59;6.03;;;0.82;;
76712;SDS011;65640;43.154;25.658;2023-04-15T13:49:24;1.52;;;0.80;;
76712;SDS011;65640;43.154;25.658;2023-04-15T13:51:50;1.35;;;0.70;;
76712;SDS011;65640;43.154;25.658;2023-04-15T13:54:16;2.03;;;0.93;;
76712;SDS011;65640;43.154;25.658;2023-04-15T13:56:41;0.60;;;0.60;;
76712;SDS011;65640;43.154;25.658;2023-04-15T13:59:06;1.67;;;0.57;;
76712;SDS011;65640;43.154;25.658;2023-04-15T14:01:33;1.00;;;0.63;;
76712;SDS011;65640;43.154;25.658;2023-04-15T14:03:58;3.35;;;0.55;;
76712;SDS011;65640;43.154;25.658;2023-04-15T14:06:24;1.08;;;0.70;;
76712;SDS011;65640;43.154;25.658;2023-04-15T14:08:51;3.42;;;0.80;;
76712;SDS011;65640;43.154;25.658;2023-04-15T14:11:17;1.20;;;0.80;;
76712;SDS011;65640;43.154;25.658;2023-04-15T14:13:42;4.20;;;0.90;;
76712;SDS011;65640;43.154;25.658;2023-04-15T14:16:07;0.98;;;0.77;;
76712;SDS011;65640;43.154;25.658;2023-04-15T14:18:33;1.73;;;0.93;;
76712;SDS011;65640;43.154;25.658;2023-04-15T14:20:58;2.17;;;1.17;;
76712;SDS011;65640;43.154;25.658;2023-04-15T14:23:24;2.88;;;0.85;;
76712;SDS011;65640;43.154;25.658;2023-04-15T14:25:50;2.55;;;0.80;;
76712;SDS011;65640;43.154;25.658;2023-04-15T14:28:16;1.85;;;1.00;;
76712;SDS011;65640;43.154;25.658;2023-04-15T14:30:41;1.00;;;0.80;;
76712;SDS011;65640;43.154;25.658;2023-04-15T14:33:06;2.15;;;1.83;;
76712;SDS011;65640;43.154;25.658;2023-04-15T14:35:32;0.98;;;0.77;;
76712;SDS011;65640;43.154;25.658;2023-04-15T14:37:57;0.80;;;0.70;;
76712;SDS011;65640;43.154;25.658;2023-04-15T14:40:23;1.48;;;0.90;;
76712;SDS011;65640;43.154;25.658;2023-04-15T14:42:48;1.15;;;0.73;;
76712;SDS011;65640;43.154;25.658;2023-04-15T14:45:14;2.58;;;0.73;;
76712;SDS011;65640;43.154;25.658;2023-04-15T14:47:39;1.55;;;0.90;;
76712;SDS011;65640;43.154;25.658;2023-04-15T14:50:05;0.90;;;0.70;;
76712;SDS011;65640;43.154;25.658;2023-04-15T14:52:31;2.13;;;0.85;;
76712;SDS011;65640;43.154;25.658;2023-04-15T14:55:02;1.70;;;0.70;;
76712;SDS011;65640;43.154;25.658;2023-04-15T14:57:35;3.03;;;0.70;;
76712;SDS011;65640;43.154;25.658;2023-04-15T15:00:02;1.00;;;0.63;;
76712;SDS011;65640;43.154;25.658;2023-04-15T15:02:29;0.93;;;0.45;;
76712;SDS011;65640;43.154;25.658;2023-04-15T15:04:55;3.05;;;1.00;;
76712;SDS011;65640;43.154;25.658;2023-04-15T15:07:21;1.50;;;0.50;;